createdAt,value
2023-03-12T00:00:25.411Z,61.53
2023-03-12T00:01:30.675Z,61.57
2023-03-12T00:02:33.170Z,61.66
2023-03-12T00:03:35.580Z,61.67
2023-03-12T00:04:38.016Z,61.74
2023-03-12T00:05:41.951Z,61.95
2023-03-12T00:06:44.287Z,61.97
2023-03-12T00:07:46.608Z,61.96
2023-03-12T00:08:49.428Z,61.96
2023-03-12T00:09:51.769Z,62.07
2023-03-12T00:10:54.150Z,62.03
2023-03-12T00:11:56.587Z,62.06
2023-03-12T00:12:59.034Z,62.07
2023-03-12T00:14:01.525Z,62.05
2023-03-12T00:15:04.421Z,61.95
2023-03-12T00:16:15.365Z,61.83
2023-03-12T00:17:17.743Z,61.58
2023-03-12T00:18:20.110Z,61.61
2023-03-12T00:19:22.698Z,61.66
2023-03-12T00:20:26.376Z,61.69
2023-03-12T00:21:28.767Z,61.70
2023-03-12T00:22:31.091Z,61.56
2023-03-12T00:23:33.930Z,61.57
2023-03-12T00:24:36.321Z,61.64
2023-03-12T00:25:38.662Z,61.45
2023-03-12T00:26:41.053Z,61.35
2023-03-12T00:27:43.423Z,61.41
2023-03-12T00:28:47.852Z,61.47
2023-03-12T00:29:50.385Z,61.31
2023-03-12T00:30:55.384Z,61.16
2023-03-12T00:31:59.401Z,60.85
2023-03-12T00:33:01.745Z,60.90
2023-03-12T00:34:04.337Z,60.68
2023-03-12T00:35:07.748Z,60.67
2023-03-12T00:36:10.224Z,60.63
2023-03-12T00:37:12.672Z,60.69
2023-03-12T00:38:15.087Z,60.61
2023-03-12T00:39:17.477Z,60.65
2023-03-12T00:40:19.892Z,60.62
2023-03-12T00:41:22.689Z,60.46
2023-03-12T00:42:25.101Z,60.55
2023-03-12T00:43:27.450Z,60.53
2023-03-12T00:44:29.797Z,60.60
2023-03-12T00:45:32.122Z,60.60
2023-03-12T00:46:34.520Z,60.42
2023-03-12T00:47:36.921Z,60.34
2023-03-12T00:48:39.701Z,60.26
2023-03-12T00:49:42.077Z,60.17
2023-03-12T00:50:44.471Z,60.16
2023-03-12T00:51:46.885Z,60.20
2023-03-12T00:52:49.223Z,59.97
2023-03-12T00:53:51.615Z,60.02
2023-03-12T00:54:58.215Z,60.03
2023-03-12T00:56:00.621Z,59.90
2023-03-12T00:57:02.987Z,59.69
2023-03-12T00:58:05.413Z,59.63
2023-03-12T00:59:07.779Z,59.70
2023-03-12T01:00:11.501Z,59.47
2023-03-12T01:01:14.215Z,59.39
2023-03-12T01:02:16.786Z,59.44
2023-03-12T01:03:19.226Z,59.32
2023-03-12T01:04:21.737Z,59.34
2023-03-12T01:05:24.280Z,59.26
2023-03-12T01:06:26.722Z,59.14
2023-03-12T01:07:29.043Z,59.12
2023-03-12T01:08:31.424Z,59.29
2023-03-12T01:09:33.942Z,59.27
2023-03-12T01:10:37.125Z,59.17
2023-03-12T01:11:39.699Z,59.30
2023-03-12T01:12:42.331Z,59.14
2023-03-12T01:13:44.838Z,59.08
2023-03-12T01:14:47.205Z,58.97
2023-03-12T01:15:49.541Z,58.86
2023-03-12T01:16:52.608Z,58.97
2023-03-12T01:17:55.324Z,58.99
2023-03-12T01:18:58.760Z,58.88
2023-03-12T01:20:01.062Z,59.29
2023-03-12T01:21:03.792Z,59.57
2023-03-12T01:22:06.254Z,59.44
2023-03-12T01:23:08.840Z,59.26
2023-03-12T01:24:11.228Z,58.52
2023-03-12T01:25:13.574Z,58.76
2023-03-12T01:26:15.965Z,59.05
2023-03-12T01:27:18.410Z,59.02
2023-03-12T01:28:21.700Z,58.84
2023-03-12T01:29:24.379Z,58.44
2023-03-12T01:30:26.872Z,58.48
2023-03-12T01:31:29.328Z,58.62
2023-03-12T01:32:31.771Z,58.57
2023-03-12T01:33:34.097Z,58.52
2023-03-12T01:34:36.490Z,58.57
2023-03-12T01:35:40.426Z,58.56
2023-03-12T01:36:42.909Z,58.57
2023-03-12T01:37:45.742Z,58.59
2023-03-12T01:38:48.173Z,58.67
2023-03-12T01:39:50.529Z,58.60
2023-03-12T01:40:52.976Z,58.64
2023-03-12T01:41:55.588Z,58.78
2023-03-12T01:42:58.518Z,58.94
2023-03-12T01:44:03.787Z,59.08
2023-03-12T01:45:06.897Z,59.52
2023-03-12T01:46:24.270Z,59.36
2023-03-12T01:47:27.795Z,59.37
2023-03-12T01:48:34.783Z,59.60
2023-03-12T01:49:37.216Z,59.68
2023-03-12T01:50:39.656Z,59.55
2023-03-12T01:51:46.868Z,59.85
2023-03-12T01:52:49.224Z,59.74
2023-03-12T01:53:54.470Z,59.74
2023-03-12T01:55:09.607Z,60.12
2023-03-12T01:56:13.349Z,59.86
2023-03-12T01:57:19.364Z,59.98
2023-03-12T01:58:22.342Z,59.74
2023-03-12T01:59:30.499Z,59.35
2023-03-12T02:00:34.005Z,59.47
2023-03-12T02:01:37.734Z,59.31
2023-03-12T02:02:42.263Z,59.33
2023-03-12T02:03:47.088Z,59.22
2023-03-12T02:04:59.313Z,59.33
2023-03-12T02:06:12.210Z,59.15
2023-03-12T02:07:16.743Z,59.26
2023-03-12T02:08:19.554Z,59.32
2023-03-12T02:09:22.167Z,59.14
2023-03-12T02:10:25.467Z,59.20
2023-03-12T02:11:27.906Z,59.24
2023-03-12T02:12:30.351Z,59.25
2023-03-12T02:13:32.876Z,59.24
2023-03-12T02:14:35.268Z,58.99
2023-03-12T02:15:38.413Z,58.98
2023-03-12T02:16:41.111Z,58.98
2023-03-12T02:17:43.651Z,59.01
2023-03-12T02:18:47.366Z,59.08
2023-03-12T02:20:26.862Z,58.74
2023-03-12T02:21:33.823Z,58.66
2023-03-12T02:22:36.989Z,58.85
2023-03-12T02:23:42.858Z,58.88
2023-03-12T02:25:14.548Z,59.26
2023-03-12T02:26:18.216Z,59.22
2023-03-12T02:27:22.479Z,59.37
2023-03-12T02:28:28.643Z,59.34
2023-03-12T02:29:33.484Z,59.37
2023-03-12T02:30:37.218Z,59.40
2023-03-12T02:31:44.922Z,59.54
2023-03-12T02:32:48.865Z,59.64
2023-03-12T02:33:53.155Z,59.74
2023-03-12T02:34:57.198Z,59.80
2023-03-12T02:35:59.632Z,59.92
2023-03-12T02:37:02.203Z,60.09
2023-03-12T02:38:23.929Z,60.23
2023-03-12T02:39:26.412Z,60.37
2023-03-12T02:40:39.720Z,60.51
2023-03-12T02:41:45.789Z,60.67
2023-03-12T02:42:48.379Z,60.77
2023-03-12T02:44:24.886Z,60.90
2023-03-12T02:45:29.879Z,60.95
2023-03-12T02:46:40.506Z,61.11
2023-03-12T02:47:42.845Z,61.32
2023-03-12T02:48:45.177Z,61.35
2023-03-12T02:49:47.563Z,61.48
2023-03-12T02:50:49.940Z,61.48
2023-03-12T02:51:54.022Z,61.62
2023-03-12T02:52:56.375Z,61.83
2023-03-12T02:53:58.754Z,61.96
2023-03-12T02:55:01.409Z,62.08
2023-03-12T02:56:04.060Z,62.39
2023-03-12T02:57:06.434Z,62.26
2023-03-12T02:58:08.770Z,62.34
2023-03-12T02:59:13.348Z,62.44
2023-03-12T03:00:16.733Z,62.98
2023-03-12T03:01:19.256Z,63.29
2023-03-12T03:02:21.607Z,63.31
2023-03-12T03:03:23.932Z,62.72
2023-03-12T03:04:28.097Z,62.73
2023-03-12T03:05:30.540Z,62.83
2023-03-12T03:06:34.803Z,62.88
2023-03-12T03:07:37.655Z,63.04
2023-03-12T03:08:40.416Z,63.28
2023-03-12T03:09:42.849Z,63.45
2023-03-12T03:10:45.195Z,63.61
2023-03-12T03:11:47.620Z,63.68
2023-03-12T03:12:51.596Z,63.77
2023-03-12T03:13:54.814Z,63.89
2023-03-12T03:14:57.261Z,64.18
2023-03-12T03:16:02.098Z,64.26
2023-03-12T03:17:04.851Z,64.27
2023-03-12T03:18:07.236Z,64.39
2023-03-12T03:19:10.449Z,64.50
2023-03-12T03:20:13.000Z,64.72
2023-03-12T03:21:18.637Z,64.91
2023-03-12T03:22:22.413Z,65.00
2023-03-12T03:23:24.908Z,65.14
2023-03-12T03:24:27.325Z,65.26
2023-03-12T03:25:29.706Z,65.47
2023-03-12T03:26:32.167Z,65.61
2023-03-12T03:27:34.571Z,65.67
2023-03-12T03:28:37.032Z,65.73
2023-03-12T03:29:43.064Z,65.83
2023-03-12T03:30:45.675Z,65.83
2023-03-12T03:31:48.090Z,65.96
2023-03-12T03:32:50.572Z,66.01
2023-03-12T03:33:53.137Z,66.16
2023-03-12T03:34:55.575Z,66.21
2023-03-12T03:35:59.661Z,66.31
2023-03-12T03:37:02.038Z,66.36
2023-03-12T03:38:04.446Z,66.46
2023-03-12T03:39:06.862Z,66.46
2023-03-12T03:40:12.383Z,66.52
2023-03-12T03:41:16.612Z,66.60
2023-03-12T03:42:19.072Z,66.53
2023-03-12T03:43:22.401Z,66.58
2023-03-12T03:44:24.828Z,66.66
2023-03-12T03:45:27.178Z,66.71
2023-03-12T03:46:29.575Z,66.83
2023-03-12T03:47:32.073Z,66.80
2023-03-12T03:48:34.490Z,66.87
2023-03-12T03:49:36.810Z,66.90
2023-03-12T03:50:39.597Z,67.02
2023-03-12T03:51:42.771Z,67.04
2023-03-12T03:52:45.195Z,67.20
2023-03-12T03:53:47.551Z,67.31
2023-03-12T03:54:49.965Z,67.40
2023-03-12T03:55:52.374Z,67.52
2023-03-12T03:56:54.777Z,67.64
2023-03-12T03:57:57.177Z,67.77
2023-03-12T03:58:59.625Z,67.97
2023-03-12T04:00:03.757Z,68.19
2023-03-12T04:01:07.223Z,68.38
2023-03-12T04:02:09.601Z,68.56
2023-03-12T04:03:12.079Z,68.70
2023-03-12T04:04:14.443Z,68.94
2023-03-12T04:05:19.657Z,69.04
2023-03-12T04:06:22.093Z,69.15
2023-03-12T04:07:24.786Z,69.30
2023-03-12T04:08:27.419Z,69.50
2023-03-12T04:09:30.708Z,69.57
2023-03-12T04:10:33.056Z,69.76
2023-03-12T04:11:35.509Z,69.89
2023-03-12T04:12:37.902Z,69.92
2023-03-12T04:13:40.686Z,70.04
2023-03-12T04:14:43.331Z,70.15
2023-03-12T04:15:50.801Z,70.31
2023-03-12T04:16:53.152Z,70.40
2023-03-12T04:17:55.683Z,70.53
2023-03-12T04:18:58.323Z,70.70
2023-03-12T04:20:00.700Z,70.95
2023-03-12T04:21:05.124Z,71.16
2023-03-12T04:22:07.537Z,71.31
2023-03-12T04:23:10.226Z,71.46
2023-03-12T04:24:17.009Z,71.56
2023-03-12T04:25:19.371Z,71.59
2023-03-12T04:26:27.151Z,71.64
2023-03-12T04:27:29.516Z,71.60
2023-03-12T04:28:32.138Z,71.61
2023-03-12T04:29:34.599Z,71.60
2023-03-12T04:30:38.370Z,71.56
2023-03-12T04:31:40.832Z,71.61
2023-03-12T04:32:43.280Z,71.58
2023-03-12T04:33:45.732Z,71.56
2023-03-12T04:34:48.152Z,71.55
2023-03-12T04:35:54.867Z,71.66
2023-03-12T04:36:57.313Z,71.65
2023-03-12T04:38:01.697Z,71.73
2023-03-12T04:39:07.262Z,71.67
2023-03-12T04:40:10.904Z,71.59
2023-03-12T04:41:14.948Z,71.57
2023-03-12T04:42:17.357Z,71.53
2023-03-12T04:43:21.088Z,71.52
2023-03-12T04:44:23.468Z,71.53
2023-03-12T04:45:25.959Z,71.51
2023-03-12T04:46:28.488Z,71.56
2023-03-12T04:47:34.157Z,71.61
2023-03-12T04:48:36.842Z,71.63
2023-03-12T04:49:40.014Z,71.71
2023-03-12T04:50:42.681Z,71.72
2023-03-12T04:51:45.086Z,71.70
2023-03-12T04:52:47.567Z,71.76
2023-03-12T04:53:49.991Z,71.92
2023-03-12T04:54:53.257Z,71.96
2023-03-12T04:56:01.578Z,71.95
2023-03-12T04:57:03.958Z,72.04
2023-03-12T04:58:43.567Z,72.09
2023-03-12T04:59:47.257Z,72.00
2023-03-12T05:00:50.790Z,72.04
2023-03-12T05:02:49.264Z,72.10
2023-03-12T05:03:53.679Z,72.25
2023-03-12T05:04:57.432Z,72.23
2023-03-12T05:06:00.884Z,72.26
2023-03-12T05:07:03.711Z,72.33
2023-03-12T05:08:06.277Z,72.37
2023-03-12T05:09:08.698Z,72.33
2023-03-12T05:10:16.526Z,72.34
2023-03-12T05:11:19.546Z,72.38
2023-03-12T05:12:21.945Z,72.44
2023-03-12T05:13:24.419Z,72.50
2023-03-12T05:14:28.818Z,72.57
2023-03-12T05:15:31.272Z,72.54
2023-03-12T05:16:33.877Z,72.65
2023-03-12T05:17:45.471Z,72.71
2023-03-12T05:18:51.513Z,72.69
2023-03-12T05:19:53.953Z,72.79
2023-03-12T05:21:08.355Z,72.75
2023-03-12T05:22:12.717Z,72.78
2023-03-12T05:23:15.176Z,72.79
2023-03-12T05:24:19.385Z,72.80
2023-03-12T05:25:22.905Z,72.79
2023-03-12T05:26:28.370Z,72.77
2023-03-12T05:27:31.910Z,72.84
2023-03-12T05:28:34.724Z,72.89
2023-03-12T05:29:39.864Z,72.81
2023-03-12T05:30:42.281Z,72.85
2023-03-12T05:31:46.748Z,72.83
2023-03-12T05:32:49.234Z,72.81
2023-03-12T05:33:53.411Z,72.83
2023-03-12T05:34:59.917Z,72.89
2023-03-12T05:36:02.411Z,72.72
2023-03-12T05:37:08.626Z,72.72
2023-03-12T05:38:11.996Z,72.74
2023-03-12T05:39:25.380Z,72.71
2023-03-12T05:40:27.827Z,72.80
2023-03-12T05:41:31.035Z,72.82
2023-03-12T05:42:33.451Z,72.84
2023-03-12T05:43:36.176Z,72.77
2023-03-12T05:44:39.079Z,72.79
2023-03-12T05:45:41.587Z,72.70
2023-03-12T05:46:52.354Z,72.66
2023-03-12T05:48:03.920Z,72.69
2023-03-12T05:49:06.397Z,72.60
2023-03-12T05:50:10.780Z,72.60
2023-03-12T05:51:13.289Z,72.60
2023-03-12T05:52:15.685Z,72.49
2023-03-12T05:53:18.096Z,72.48
2023-03-12T05:54:20.466Z,72.46
2023-03-12T05:55:22.835Z,72.41
2023-03-12T05:56:25.434Z,72.26
2023-03-12T05:57:27.869Z,72.21
2023-03-12T05:58:30.932Z,72.17
2023-03-12T05:59:33.339Z,72.01
2023-03-12T06:00:38.168Z,71.97
2023-03-12T06:01:41.237Z,71.88
2023-03-12T06:02:43.987Z,71.79
2023-03-12T06:03:46.946Z,71.77
2023-03-12T06:04:50.729Z,71.60
2023-03-12T06:05:58.185Z,71.64
2023-03-12T06:07:00.610Z,71.62
2023-03-12T06:08:04.111Z,71.52
2023-03-12T06:09:06.597Z,71.52
2023-03-12T06:10:09.972Z,71.35
2023-03-12T06:11:13.288Z,71.32
2023-03-12T06:12:15.716Z,71.34
2023-03-12T06:13:18.226Z,71.36
2023-03-12T06:14:26.762Z,71.35
2023-03-12T06:15:29.143Z,71.09
2023-03-12T06:16:31.563Z,70.79
2023-03-12T06:17:33.992Z,70.86
2023-03-12T06:18:45.246Z,70.48
2023-03-12T06:19:54.005Z,70.23
2023-03-12T06:21:11.901Z,70.06
2023-03-12T06:22:16.361Z,69.87
2023-03-12T06:23:21.620Z,69.78
2023-03-12T06:24:24.243Z,69.43
2023-03-12T06:25:33.460Z,69.38
2023-03-12T06:26:35.940Z,69.36
2023-03-12T06:27:38.675Z,69.35
2023-03-12T06:28:41.235Z,69.43
2023-03-12T06:29:43.758Z,69.06
2023-03-12T06:30:46.153Z,68.97
2023-03-12T06:31:48.654Z,68.84
2023-03-12T06:32:51.132Z,68.66
2023-03-12T06:33:56.013Z,68.72
2023-03-12T06:35:02.681Z,68.83
2023-03-12T06:36:06.430Z,68.42
2023-03-12T06:37:11.848Z,68.20
2023-03-12T06:38:14.205Z,67.85
2023-03-12T06:39:18.500Z,68.04
2023-03-12T06:40:20.934Z,68.00
2023-03-12T06:41:23.583Z,68.03
2023-03-12T06:42:26.711Z,67.76
2023-03-12T06:43:31.854Z,67.44
2023-03-12T06:44:43.290Z,67.35
2023-03-12T06:45:45.648Z,66.79
2023-03-12T06:46:48.598Z,67.08
2023-03-12T06:47:51.047Z,67.13
2023-03-12T06:49:10.752Z,66.70
2023-03-12T06:50:13.163Z,66.86
2023-03-12T06:51:17.031Z,67.07
2023-03-12T06:52:19.603Z,67.22
2023-03-12T06:53:22.924Z,66.94
2023-03-12T06:54:25.395Z,66.47
2023-03-12T06:55:30.338Z,66.24
2023-03-12T06:56:32.851Z,66.08
2023-03-12T06:57:35.629Z,65.99
2023-03-12T06:58:38.427Z,65.90
2023-03-12T06:59:40.768Z,65.71
2023-03-12T07:00:43.298Z,65.35
2023-03-12T07:01:45.744Z,65.38
2023-03-12T07:02:48.144Z,65.02
2023-03-12T07:03:50.524Z,65.30
2023-03-12T07:04:52.895Z,64.61
2023-03-12T07:05:56.890Z,64.58
2023-03-12T07:06:59.249Z,64.54
2023-03-12T07:08:01.885Z,63.88
2023-03-12T07:09:06.490Z,63.44
2023-03-12T07:10:11.689Z,63.21
2023-03-12T07:11:14.451Z,62.92
2023-03-12T07:12:16.885Z,62.67
2023-03-12T07:13:19.226Z,62.53
2023-03-12T07:14:21.650Z,62.26
2023-03-12T07:15:24.420Z,62.17
2023-03-12T07:16:26.856Z,62.21
2023-03-12T07:17:29.384Z,62.33
2023-03-12T07:18:31.809Z,62.12
2023-03-12T07:19:34.129Z,62.13
2023-03-12T07:20:42.397Z,61.80
2023-03-12T07:21:44.734Z,61.48
2023-03-12T07:22:47.095Z,61.23
2023-03-12T07:23:50.754Z,61.13
2023-03-12T07:24:53.138Z,61.10
2023-03-12T07:25:55.481Z,60.97
2023-03-12T07:26:57.881Z,60.76
2023-03-12T07:28:00.201Z,60.46
2023-03-12T07:29:03.799Z,60.23
2023-03-12T07:30:06.856Z,59.65
2023-03-12T07:31:09.591Z,59.35
2023-03-12T07:32:12.178Z,59.44
2023-03-12T07:33:14.620Z,59.18
2023-03-12T07:34:17.164Z,59.32
2023-03-12T07:35:19.618Z,59.06
2023-03-12T07:36:24.460Z,59.01
2023-03-12T07:37:26.907Z,59.15
2023-03-12T07:38:29.793Z,59.09
2023-03-12T07:39:32.243Z,58.83
2023-03-12T07:40:35.410Z,58.78
2023-03-12T07:41:39.087Z,58.52
2023-03-12T07:42:41.495Z,58.01
2023-03-12T07:43:44.454Z,58.26
2023-03-12T07:44:47.151Z,58.63
2023-03-12T07:45:50.110Z,58.36
2023-03-12T07:46:53.374Z,57.19
2023-03-12T07:47:55.900Z,56.75
2023-03-12T07:48:58.555Z,56.88
2023-03-12T07:50:02.055Z,56.54
2023-03-12T07:51:05.007Z,56.65
2023-03-12T07:52:11.558Z,56.55
2023-03-12T07:53:14.042Z,55.89
2023-03-12T07:54:16.429Z,55.91
2023-03-12T07:55:18.912Z,56.16
2023-03-12T07:56:21.533Z,56.15
2023-03-12T07:57:24.424Z,55.81
2023-03-12T07:58:27.047Z,55.67
2023-03-12T07:59:29.612Z,55.83
2023-03-12T08:00:32.221Z,55.50
2023-03-12T08:01:34.687Z,55.06
2023-03-12T08:02:37.627Z,54.71
2023-03-12T08:03:40.216Z,54.81
2023-03-12T08:04:42.823Z,54.78
2023-03-12T08:05:45.591Z,54.51
2023-03-12T08:06:48.146Z,54.34
2023-03-12T08:07:53.914Z,54.10
2023-03-12T08:08:56.351Z,53.91
2023-03-12T08:09:59.671Z,54.04
2023-03-12T08:11:04.416Z,53.90
2023-03-12T08:12:07.805Z,53.58
2023-03-12T08:13:10.185Z,53.13
2023-03-12T08:14:12.634Z,52.44
2023-03-12T08:15:15.562Z,52.42
2023-03-12T08:16:18.724Z,52.34
2023-03-12T08:17:21.152Z,52.10
2023-03-12T08:18:24.748Z,52.36
2023-03-12T08:19:27.936Z,52.60
2023-03-12T08:20:30.508Z,52.83
2023-03-12T08:21:32.871Z,53.16
2023-03-12T08:22:35.854Z,52.65
2023-03-12T08:23:38.187Z,52.25
2023-03-12T08:24:40.682Z,52.23
2023-03-12T08:25:45.613Z,51.88
2023-03-12T08:26:48.005Z,51.74
2023-03-12T08:27:50.383Z,52.06
2023-03-12T08:28:52.885Z,52.11
2023-03-12T08:30:16.235Z,51.88
2023-03-12T08:31:18.646Z,51.85
2023-03-12T08:32:41.531Z,51.79
2023-03-12T08:33:44.095Z,51.68
2023-03-12T08:34:46.437Z,51.63
2023-03-12T08:35:50.027Z,51.67
2023-03-12T08:36:52.451Z,51.70
2023-03-12T08:37:57.126Z,52.06
2023-03-12T08:38:59.497Z,52.41
2023-03-12T08:40:02.310Z,50.73
2023-03-12T08:41:05.086Z,48.86
2023-03-12T08:42:07.827Z,47.81
2023-03-12T08:43:10.776Z,48.11
2023-03-12T08:44:13.126Z,47.65
2023-03-12T08:45:16.307Z,47.08
2023-03-12T08:46:18.982Z,47.59
2023-03-12T08:47:21.384Z,48.22
2023-03-12T08:48:23.845Z,48.52
2023-03-12T08:49:26.424Z,48.68
2023-03-12T08:50:29.474Z,48.58
2023-03-12T08:51:31.863Z,48.79
2023-03-12T08:52:34.253Z,49.06
2023-03-12T08:53:37.368Z,49.25
2023-03-12T08:54:39.791Z,49.25
2023-03-12T08:55:42.220Z,48.74
2023-03-12T08:56:46.647Z,48.58
2023-03-12T08:57:49.025Z,48.68
2023-03-12T08:58:51.647Z,48.93
2023-03-12T08:59:53.975Z,49.28
2023-03-12T09:00:56.819Z,49.17
2023-03-12T09:01:59.330Z,49.24
2023-03-12T09:03:01.704Z,49.69
2023-03-12T09:04:05.080Z,49.45
2023-03-12T09:05:07.669Z,48.57
2023-03-12T09:06:14.843Z,45.03
2023-03-12T09:07:18.686Z,43.18
2023-03-12T09:08:21.051Z,43.87
2023-03-12T09:09:23.450Z,43.95
2023-03-12T09:10:30.269Z,43.38
2023-03-12T09:11:34.336Z,43.76
2023-03-12T09:12:36.805Z,44.32
2023-03-12T09:13:58.742Z,44.75
2023-03-12T09:15:04.176Z,44.83
2023-03-12T09:16:08.244Z,45.04
2023-03-12T09:17:10.666Z,45.11
2023-03-12T09:18:13.110Z,45.27
2023-03-12T09:19:15.860Z,45.20
2023-03-12T09:20:18.334Z,43.32
2023-03-12T09:21:21.073Z,43.35
2023-03-12T09:22:23.390Z,43.86
2023-03-12T09:23:26.730Z,43.89
2023-03-12T09:24:29.056Z,44.36
2023-03-12T09:25:31.439Z,44.92
2023-03-12T09:26:33.870Z,46.21
2023-03-12T09:27:39.668Z,46.75
2023-03-12T09:28:42.751Z,46.92
2023-03-12T09:29:58.808Z,46.85
2023-03-12T09:31:02.955Z,46.80
2023-03-12T09:32:06.019Z,46.35
2023-03-12T09:33:08.776Z,46.44
2023-03-12T09:34:11.141Z,46.27
2023-03-12T09:35:15.329Z,46.29
2023-03-12T09:36:17.966Z,46.13
2023-03-12T09:37:23.236Z,45.84
2023-03-12T09:38:26.969Z,45.89
2023-03-12T09:39:29.394Z,45.60
2023-03-12T09:40:36.481Z,45.54
2023-03-12T09:41:41.469Z,45.52
2023-03-12T09:42:48.292Z,45.60
2023-03-12T09:44:02.036Z,45.64
2023-03-12T09:45:06.973Z,46.01
2023-03-12T09:46:34.816Z,45.94
2023-03-12T09:47:47.079Z,45.29
2023-03-12T09:48:50.521Z,44.96
2023-03-12T09:50:07.494Z,44.90
2023-03-12T09:51:20.729Z,44.63
2023-03-12T09:52:28.278Z,44.43
2023-03-12T09:53:53.088Z,44.15
2023-03-12T09:55:15.165Z,44.33
2023-03-12T09:56:20.470Z,45.02
2023-03-12T09:57:26.129Z,44.99
2023-03-12T09:58:36.764Z,44.44
2023-03-12T09:59:39.114Z,44.32
2023-03-12T10:00:41.600Z,44.03
2023-03-12T10:01:59.729Z,44.17
2023-03-12T10:03:11.698Z,44.63
2023-03-12T10:04:48.768Z,45.22
2023-03-12T10:06:06.729Z,44.65
2023-03-12T10:07:21.448Z,44.49
2023-03-12T10:08:34.177Z,44.30
2023-03-12T10:09:39.365Z,44.31
2023-03-12T10:10:51.014Z,44.43
2023-03-12T10:12:04.396Z,44.35
2023-03-12T10:13:25.158Z,43.75
2023-03-12T10:14:42.712Z,43.80
2023-03-12T10:15:55.260Z,43.90
2023-03-12T10:16:57.602Z,43.21
2023-03-12T10:18:24.419Z,43.35
2023-03-12T10:19:55.982Z,43.29
2023-03-12T10:21:24.392Z,43.28
2023-03-12T10:22:47.859Z,42.71
2023-03-12T10:24:08.940Z,42.67
2023-03-12T10:25:42.775Z,42.38
2023-03-12T10:26:50.672Z,42.06
2023-03-12T10:27:54.188Z,42.28
2023-03-12T10:29:17.037Z,42.50
2023-03-12T10:30:26.859Z,42.11
2023-03-12T10:31:33.057Z,41.92
2023-03-12T10:32:46.621Z,42.15
2023-03-12T10:33:55.859Z,41.69
2023-03-12T10:35:14.011Z,41.54
2023-03-12T10:36:20.905Z,41.30
2023-03-12T10:37:25.403Z,41.20
2023-03-12T10:38:30.017Z,40.82
2023-03-12T10:39:32.414Z,41.03
2023-03-12T10:40:36.304Z,41.56
2023-03-12T10:41:38.654Z,41.80
2023-03-12T10:42:41.033Z,41.61
2023-03-12T10:43:43.453Z,41.35
2023-03-12T10:44:50.841Z,40.68
2023-03-12T10:46:22.985Z,40.84
2023-03-12T10:47:31.103Z,40.97
2023-03-12T10:48:33.607Z,40.64
2023-03-12T10:49:37.609Z,40.20
2023-03-12T10:50:40.813Z,40.21
2023-03-12T10:52:13.099Z,40.12
2023-03-12T10:53:26.779Z,39.92
2023-03-12T10:54:37.248Z,39.48
2023-03-12T10:55:39.905Z,38.78
2023-03-12T10:56:51.508Z,38.98
2023-03-12T10:57:54.120Z,39.33
2023-03-12T10:58:58.382Z,39.63
2023-03-12T11:00:12.045Z,39.56
2023-03-12T11:01:24.395Z,39.66
2023-03-12T11:02:34.040Z,40.23
2023-03-12T11:03:36.432Z,40.00
2023-03-12T11:04:38.866Z,39.81
2023-03-12T11:05:53.436Z,39.78
2023-03-12T11:07:06.009Z,39.74
2023-03-12T11:08:29.544Z,38.98
2023-03-12T11:09:31.958Z,38.31
2023-03-12T11:10:46.350Z,38.35
2023-03-12T11:11:50.434Z,38.15
2023-03-12T11:12:59.019Z,38.61
2023-03-12T11:14:15.764Z,39.09
2023-03-12T11:15:29.187Z,39.05
2023-03-12T11:16:32.268Z,38.91
2023-03-12T11:17:34.760Z,39.18
2023-03-12T11:18:38.173Z,39.16
2023-03-12T11:19:40.550Z,38.79
2023-03-12T11:20:42.981Z,38.21
2023-03-12T11:22:16.331Z,38.44
2023-03-12T11:23:28.417Z,38.85
2023-03-12T11:24:31.073Z,38.60
2023-03-12T11:25:33.450Z,38.62
2023-03-12T11:26:51.784Z,39.15
2023-03-12T11:27:57.092Z,39.57
2023-03-12T11:29:31.448Z,40.16
2023-03-12T11:30:37.421Z,40.13
2023-03-12T11:31:57.859Z,40.03
2023-03-12T11:33:02.250Z,39.12
2023-03-12T11:34:08.899Z,38.49
2023-03-12T11:35:13.092Z,37.90
2023-03-12T11:36:27.203Z,37.68
2023-03-12T11:37:54.443Z,38.21
2023-03-12T11:39:26.789Z,38.50
2023-03-12T11:40:53.293Z,38.69
2023-03-12T11:42:17.393Z,39.33
2023-03-12T11:43:57.209Z,40.27
2023-03-12T11:45:29.183Z,40.62
2023-03-12T11:46:57.149Z,40.18
2023-03-12T11:48:36.641Z,39.88
2023-03-12T11:49:58.777Z,39.52
2023-03-12T11:51:19.123Z,39.16
2023-03-12T11:52:47.631Z,38.82
2023-03-12T11:54:20.619Z,38.56
2023-03-12T11:55:52.757Z,37.61
2023-03-12T11:57:07.681Z,36.89
2023-03-12T11:58:46.883Z,36.83
2023-03-12T11:59:58.180Z,36.12
2023-03-12T12:01:18.421Z,35.94
2023-03-12T12:02:32.141Z,35.84
2023-03-12T12:03:49.512Z,35.82
2023-03-12T12:05:03.981Z,35.65
2023-03-12T12:06:23.536Z,35.92
2023-03-12T12:07:57.708Z,35.77
2023-03-12T12:09:12.006Z,35.20
2023-03-12T12:10:32.810Z,34.92
2023-03-12T12:11:54.700Z,34.06
2023-03-12T12:13:39.170Z,33.91
2023-03-12T12:14:49.644Z,33.02
2023-03-12T12:15:57.739Z,33.07
2023-03-12T12:17:39.323Z,32.94
2023-03-12T12:18:56.646Z,33.62
2023-03-12T12:20:17.778Z,33.09
2023-03-12T12:21:43.179Z,32.79
2023-03-12T12:23:13.107Z,33.35
2023-03-12T12:24:18.358Z,33.89
2023-03-12T12:25:48.327Z,32.72
2023-03-12T12:26:50.777Z,31.88
2023-03-12T12:28:21.533Z,31.94
2023-03-12T12:29:43.391Z,32.65
2023-03-12T12:31:03.977Z,33.28
2023-03-12T12:32:13.783Z,32.74
2023-03-12T12:33:33.220Z,32.68
2023-03-12T12:34:41.766Z,32.80
2023-03-12T12:35:45.390Z,32.74
2023-03-12T12:37:21.233Z,33.13
2023-03-12T12:38:50.143Z,33.51
2023-03-12T12:40:05.322Z,33.33
2023-03-12T12:41:18.660Z,32.81
2023-03-12T12:42:26.541Z,32.90
2023-03-12T12:43:42.874Z,33.04
2023-03-12T12:44:51.368Z,33.01
2023-03-12T12:45:57.413Z,32.61
2023-03-12T12:47:05.507Z,32.41
2023-03-12T12:48:25.338Z,32.29
2023-03-12T12:49:50.836Z,32.09
2023-03-12T12:50:54.594Z,32.45
2023-03-12T12:52:08.387Z,32.60
2023-03-12T12:53:16.749Z,33.01
2023-03-12T12:54:35.867Z,33.49
2023-03-12T12:55:55.760Z,33.11
2023-03-12T12:57:05.811Z,32.80
2023-03-12T12:58:24.138Z,32.59
2023-03-12T12:59:32.141Z,32.55
2023-03-12T13:00:56.698Z,33.14
2023-03-12T13:02:01.252Z,32.99
2023-03-12T13:03:04.295Z,32.61
2023-03-12T13:04:12.259Z,32.40
2023-03-12T13:05:26.625Z,32.60
2023-03-12T13:06:30.240Z,32.21
2023-03-12T13:07:34.371Z,31.05
2023-03-12T13:08:39.518Z,31.24
2023-03-12T13:09:48.906Z,31.28
2023-03-12T13:10:57.996Z,31.16
2023-03-12T13:12:13.059Z,31.18
2023-03-12T13:13:21.649Z,30.97
2023-03-12T13:14:36.804Z,30.97
2023-03-12T13:15:43.675Z,31.12
2023-03-12T13:16:47.606Z,31.31
2023-03-12T13:18:19.010Z,31.32
2023-03-12T13:19:25.560Z,31.66
2023-03-12T13:20:35.405Z,32.06
2023-03-12T13:21:55.876Z,32.09
2023-03-12T13:23:31.954Z,31.49
2023-03-12T13:24:44.897Z,31.11
2023-03-12T13:25:56.018Z,31.34
2023-03-12T13:27:38.540Z,31.15
2023-03-12T13:28:56.876Z,30.83
2023-03-12T13:30:33.163Z,30.91
2023-03-12T13:31:37.756Z,30.62
2023-03-12T13:33:06.112Z,30.52
2023-03-12T13:34:17.695Z,30.96
2023-03-12T13:35:28.978Z,32.12
2023-03-12T13:36:33.662Z,32.72
2023-03-12T13:38:06.231Z,32.08
2023-03-12T13:39:08.538Z,32.30
2023-03-12T13:40:30.772Z,31.94
2023-03-12T13:41:49.965Z,30.90
2023-03-12T13:43:08.000Z,30.76
2023-03-12T13:44:29.129Z,30.92
2023-03-12T13:45:32.081Z,30.50
2023-03-12T13:46:38.367Z,29.95
2023-03-12T13:47:43.132Z,29.85
2023-03-12T13:48:47.052Z,30.00
2023-03-12T13:49:56.117Z,29.99
2023-03-12T13:51:23.970Z,30.49
2023-03-12T13:52:31.155Z,31.25
2023-03-12T13:53:40.626Z,31.78
2023-03-12T13:54:48.845Z,31.68
2023-03-12T13:56:06.123Z,32.04
2023-03-12T13:57:24.114Z,32.01
2023-03-12T13:58:27.562Z,31.32
2023-03-12T13:59:30.411Z,30.83
2023-03-12T14:01:02.953Z,30.39
2023-03-12T14:02:18.461Z,29.95
2023-03-12T14:03:28.098Z,30.08
2023-03-12T14:04:38.085Z,29.93
2023-03-12T14:05:55.513Z,30.04
2023-03-12T14:07:38.988Z,30.14
2023-03-12T14:09:06.070Z,30.21
2023-03-12T14:10:22.985Z,30.18
2023-03-12T14:11:49.862Z,29.71
2023-03-12T14:13:13.903Z,30.04
2023-03-12T14:14:25.756Z,30.22
2023-03-12T14:15:40.038Z,30.18
2023-03-12T14:16:49.431Z,30.33
2023-03-12T14:17:57.929Z,30.57
2023-03-12T14:19:00.508Z,30.51
2023-03-12T14:20:17.326Z,30.65
2023-03-12T14:21:22.015Z,30.80
2023-03-12T14:22:25.245Z,30.47
2023-03-12T14:23:35.918Z,30.29
2023-03-12T14:24:48.638Z,29.97